Time;durP1;ratioP1;P1;durP2;ratioP2;P2;SDS_P1;SDS_P2;PMS_P1;PMS_P2;Temp;Humidity;BMP_temperature;BMP_pressure;BME280_temperature;BME280_humidity;BME280_pressure;Samples;Min_cycle;Max_cycle;Signal;HPM_P1;HPM_P2
2021/03/18 00:00:46;;;;;;;24.73;16.17;;;2.70;98.90;;;;;;2030593;28;20044;-72
2021/03/18 00:01:47;;;;;;;25.15;16.30;;;2.70;98.80;;;;;;2030981;29;20054;-73
2021/03/18 00:02:48;;;;;;;23.50;15.35;;;2.70;98.80;;;;;;2030859;29;20036;-72
2021/03/18 00:03:50;;;;;;;24.83;15.32;;;2.70;98.80;;;;;;2030491;29;20066;-73
2021/03/18 00:04:50;;;;;;;24.63;15.50;;;2.70;98.70;;;;;;2031057;29;20118;-73
2021/03/18 00:05:51;;;;;;;25.13;16.25;;;2.70;98.80;;;;;;2030908;29;20026;-73
2021/03/18 00:06:52;;;;;;;24.42;15.52;;;2.70;98.80;;;;;;2038728;29;20048;-73
2021/03/18 00:07:52;;;;;;;24.08;15.23;;;2.70;98.70;;;;;;2038624;29;20556;-73
2021/03/18 00:08:53;;;;;;;23.75;15.18;;;2.70;98.60;;;;;;2030982;29;20097;-73
2021/03/18 00:09:53;;;;;;;22.10;14.55;;;2.70;98.60;;;;;;2023080;29;20035;-73
2021/03/18 00:10:55;;;;;;;22.85;14.80;;;2.70;98.60;;;;;;2030648;29;20025;-73
2021/03/18 00:11:55;;;;;;;23.65;15.40;;;2.70;98.60;;;;;;2031561;29;20488;-72
2021/03/18 00:12:56;;;;;;;27.75;16.95;;;2.70;98.60;;;;;;2030937;28;20032;-74
2021/03/18 00:13:57;;;;;;;25.38;16.40;;;2.70;98.50;;;;;;2030534;29;20024;-72
2021/03/18 00:14:58;;;;;;;24.15;15.88;;;2.70;98.60;;;;;;2030983;28;20537;-73
2021/03/18 00:15:59;;;;;;;26.15;16.45;;;2.70;98.50;;;;;;2031096;29;20084;-73
2021/03/18 00:17:00;;;;;;;27.13;17.15;;;2.70;98.50;;;;;;2031911;29;20040;-73
2021/03/18 00:18:01;;;;;;;25.40;15.70;;;2.70;98.50;;;;;;2031544;28;20044;-72
2021/03/18 00:19:03;;;;;;;27.42;16.58;;;2.70;98.50;;;;;;2031602;29;20032;-73
2021/03/18 00:20:09;;;;;;;23.98;15.13;;;2.70;98.50;;;;;;2030872;28;20036;-73
2021/03/18 00:21:10;;;;;;;25.17;15.80;;;2.70;98.50;;;;;;2030569;28;20021;-73
2021/03/18 00:22:11;;;;;;;24.40;15.60;;;2.70;98.60;;;;;;2030686;29;20122;-73
2021/03/18 00:23:12;;;;;;;23.80;15.02;;;2.70;98.40;;;;;;2030436;28;20035;-73
2021/03/18 00:24:13;;;;;;;22.58;14.48;;;2.70;98.30;;;;;;2015244;29;20060;-72
2021/03/18 00:25:17;;;;;;;26.63;16.52;;;2.70;98.30;;;;;;2023247;29;20051;-72
2021/03/18 00:26:23;;;;;;;24.45;15.57;;;2.70;98.30;;;;;;2030825;29;20115;-72
2021/03/18 00:27:24;;;;;;;27.95;17.15;;;2.70;98.30;;;;;;2030972;28;20035;-73
2021/03/18 00:28:25;;;;;;;25.90;15.50;;;2.60;98.40;;;;;;2030862;29;20058;-72
2021/03/18 00:29:25;;;;;;;25.10;15.63;;;2.60;98.50;;;;;;2031565;28;20033;-72
2021/03/18 00:30:27;;;;;;;22.30;14.80;;;2.60;98.50;;;;;;2030685;28;20039;-73
2021/03/18 00:31:30;;;;;;;25.45;16.08;;;2.60;98.50;;;;;;2030478;29;20034;-72
2021/03/18 00:32:31;;;;;;;24.48;15.40;;;2.70;98.50;;;;;;2030751;28;20109;-73
2021/03/18 00:33:32;;;;;;;24.55;15.65;;;2.70;98.30;;;;;;2022471;29;20033;-72
2021/03/18 00:34:33;;;;;;;24.33;15.68;;;2.70;98.30;;;;;;2030729;29;20114;-72
2021/03/18 00:35:34;;;;;;;23.98;15.07;;;2.70;98.30;;;;;;2030733;29;20047;-72
2021/03/18 00:36:34;;;;;;;23.50;15.75;;;2.70;98.30;;;;;;2030804;29;20036;-72
2021/03/18 00:37:41;;;;;;;24.35;15.35;;;2.70;98.30;;;;;;2031355;29;20114;-72
2021/03/18 00:38:42;;;;;;;24.35;15.80;;;2.70;98.70;;;;;;2031389;29;20415;-72
2021/03/18 00:39:42;;;;;;;24.80;15.57;;;2.70;98.40;;;;;;2031460;28;20039;-72
2021/03/18 00:40:47;;;;;;;24.75;15.95;;;2.70;98.40;;;;;;2031054;28;20032;-73
2021/03/18 00:41:47;;;;;;;24.58;15.32;;;2.70;98.30;;;;;;2031331;29;20020;-72
2021/03/18 00:43:02;;;;;;;25.80;15.85;;;2.70;98.20;;;;;;2030577;28;20034;-72
2021/03/18 00:44:04;;;;;;;26.00;15.70;;;2.80;98.20;;;;;;2024339;29;20039;-73
2021/03/18 00:45:06;;;;;;;23.05;14.88;;;2.80;98.10;;;;;;2030861;29;20353;-72
2021/03/18 00:46:07;;;;;;;25.83;16.08;;;2.80;98.10;;;;;;2030538;28;20127;-73
2021/03/18 00:47:08;;;;;;;27.13;16.50;;;2.70;98.20;;;;;;2030720;28;20538;-72
2021/03/18 00:48:10;;;;;;;25.70;16.42;;;2.70;98.30;;;;;;2022903;29;20037;-73
2021/03/18 00:49:12;;;;;;;26.77;16.35;;;2.70;98.30;;;;;;2022925;29;20208;-73
2021/03/18 00:50:18;;;;;;;25.17;15.70;;;2.70;98.30;;;;;;2022855;28;20033;-72
2021/03/18 00:51:19;;;;;;;24.33;15.70;;;2.70;98.30;;;;;;2023234;29;20024;-72
2021/03/18 00:52:19;;;;;;;24.80;15.95;;;2.70;98.40;;;;;;2030689;29;20040;-72
2021/03/18 00:53:23;;;;;;;26.98;16.20;;;2.70;98.50;;;;;;2030193;28;20040;-73
2021/03/18 00:54:24;;;;;;;26.98;16.92;;;2.70;98.40;;;;;;2030619;28;20582;-72
2021/03/18 00:55:26;;;;;;;27.00;17.23;;;2.70;98.40;;;;;;2022813;29;20032;-73
2021/03/18 00:56:28;;;;;;;25.98;16.05;;;2.70;98.50;;;;;;2023254;29;20036;-72
2021/03/18 00:57:34;;;;;;;27.17;17.27;;;2.70;98.40;;;;;;2030728;28;20036;-72
2021/03/18 00:58:35;;;;;;;26.13;16.35;;;2.70;98.50;;;;;;2030630;29;20033;-73
2021/03/18 00:59:35;;;;;;;25.20;16.13;;;2.70;98.50;;;;;;2031318;28;20043;-73
2021/03/18 01:00:36;;;;;;;26.58;16.52;;;2.70;98.50;;;;;;2032281;29;20028;-72
2021/03/18 01:01:37;;;;;;;24.50;16.08;;;2.70;98.60;;;;;;2032670;28;20048;-73
2021/03/18 01:02:38;;;;;;;24.00;15.82;;;2.70;98.60;;;;;;2040013;29;20042;-72
2021/03/18 01:03:41;;;;;;;24.77;16.52;;;2.70;98.70;;;;;;2039615;29;20403;-72
2021/03/18 01:04:43;;;;;;;29.00;17.95;;;2.70;98.70;;;;;;2032822;29;20099;-72
2021/03/18 01:05:50;;;;;;;29.98;18.20;;;2.70;98.50;;;;;;2032781;29;20550;-72
2021/03/18 01:06:51;;;;;;;27.42;17.58;;;2.60;98.60;;;;;;2032727;29;20028;-72
2021/03/18 01:07:51;;;;;;;28.02;17.67;;;2.60;98.60;;;;;;2032716;28;20548;-72
2021/03/18 01:08:53;;;;;;;28.42;18.17;;;2.60;98.60;;;;;;2032717;28;20032;-72
2021/03/18 01:09:54;;;;;;;27.92;17.40;;;2.50;98.70;;;;;;2032679;29;20570;-72
2021/03/18 01:10:56;;;;;;;31.15;18.75;;;2.50;98.90;;;;;;2031845;28;20017;-72
2021/03/18 01:11:57;;;;;;;29.45;18.40;;;2.50;98.90;;;;;;2032035;29;20086;-73
2021/03/18 01:12:57;;;;;;;29.02;18.52;;;2.60;99.00;;;;;;2031904;28;20630;-72
2021/03/18 01:14:00;;;;;;;29.88;18.67;;;2.60;98.90;;;;;;2031558;29;20412;-72
2021/03/18 01:15:02;;;;;;;27.55;17.27;;;2.60;98.80;;;;;;2039836;28;20036;-72
2021/03/18 01:16:08;;;;;;;26.05;17.30;;;2.60;98.80;;;;;;2039735;29;20502;-72
2021/03/18 01:17:09;;;;;;;28.63;18.55;;;2.60;98.80;;;;;;2032504;29;20032;-72
2021/03/18 01:18:10;;;;;;;27.25;17.63;;;2.60;98.80;;;;;;2032549;28;20078;-72
2021/03/18 01:19:12;;;;;;;27.67;17.95;;;2.60;98.90;;;;;;2031934;28;20385;-72
2021/03/18 01:20:15;;;;;;;27.38;18.05;;;2.60;98.60;;;;;;2031896;29;20036;-72
2021/03/18 01:21:17;;;;;;;30.15;18.27;;;2.60;98.60;;;;;;2032224;29;20060;-72
2021/03/18 01:22:17;;;;;;;25.73;17.63;;;2.60;98.60;;;;;;2032391;29;20393;-72
2021/03/18 01:23:18;;;;;;;27.98;18.08;;;2.60;98.70;;;;;;2031385;28;20036;-72
2021/03/18 01:24:19;;;;;;;26.90;17.42;;;2.70;98.60;;;;;;2032068;29;20107;-72
2021/03/18 01:25:20;;;;;;;27.50;17.70;;;2.60;98.30;;;;;;2032642;29;20139;-72
2021/03/18 01:26:20;;;;;;;26.77;16.98;;;2.60;98.30;;;;;;2032613;28;20082;-72
2021/03/18 01:27:23;;;;;;;26.73;17.52;;;2.60;98.30;;;;;;2032512;28;20480;-72
2021/03/18 01:28:25;;;;;;;26.95;17.48;;;2.70;98.20;;;;;;2032617;29;20795;-72
2021/03/18 01:29:25;;;;;;;25.92;16.90;;;2.60;98.20;;;;;;2031917;29;20031;-72
2021/03/18 01:30:26;;;;;;;25.60;17.27;;;2.60;98.20;;;;;;2031822;29;20063;-72
2021/03/18 01:31:27;;;;;;;24.23;16.85;;;2.60;98.20;;;;;;2039644;28;20162;-72
2021/03/18 01:32:28;;;;;;;26.77;17.25;;;2.70;98.30;;;;;;2031875;28;20032;-72
2021/03/18 01:33:29;;;;;;;24.33;16.60;;;2.70;98.30;;;;;;2031488;29;20099;-72
2021/03/18 01:34:29;;;;;;;27.40;17.92;;;2.70;98.10;;;;;;2032461;29;20558;-72
2021/03/18 01:35:30;;;;;;;26.00;17.25;;;2.60;98.10;;;;;;2032348;28;20038;-72
2021/03/18 01:36:33;;;;;;;25.38;16.40;;;2.60;98.20;;;;;;2032000;28;20168;-72
2021/03/18 01:37:34;;;;;;;25.33;16.42;;;2.60;98.30;;;;;;2031993;29;20032;-72
2021/03/18 01:38:35;;;;;;;23.85;16.15;;;2.60;98.20;;;;;;2032540;28;20044;-72
2021/03/18 01:39:36;;;;;;;26.70;17.75;;;2.60;98.20;;;;;;2032686;28;20024;-72
2021/03/18 01:40:37;;;;;;;25.92;17.63;;;2.60;98.40;;;;;;2032390;28;20043;-72
2021/03/18 01:41:38;;;;;;;27.80;18.27;;;2.50;98.60;;;;;;2031945;29;20377;-72
2021/03/18 01:42:40;;;;;;;25.48;16.80;;;2.50;98.80;;;;;;2031793;29;20043;-72
2021/03/18 01:43:41;;;;;;;27.80;17.40;;;2.50;98.90;;;;;;2031907;29;20045;-72
2021/03/18 01:44:42;;;;;;;24.60;16.67;;;2.40;99.00;;;;;;2032529;29;20082;-73
2021/03/18 01:45:43;;;;;;;25.88;17.23;;;2.40;98.90;;;;;;2032513;28;20036;-73
2021/03/18 01:46:43;;;;;;;26.95;16.52;;;2.40;98.90;;;;;;2031815;28;20039;-72
2021/03/18 01:47:46;;;;;;;24.88;16.65;;;2.40;99.10;;;;;;2031962;29;20029;-72
2021/03/18 01:48:47;;;;;;;26.17;16.92;;;2.40;99.10;;;;;;2032306;29;20030;-72
2021/03/18 01:49:48;;;;;;;27.77;17.83;;;2.40;99.00;;;;;;2032276;28;20024;-72
2021/03/18 01:50:49;;;;;;;26.15;17.45;;;2.40;99.00;;;;;;2032085;28;20480;-72
2021/03/18 01:51:50;;;;;;;27.15;17.90;;;2.40;99.00;;;;;;2032385;29;20028;-73
2021/03/18 01:52:51;;;;;;;26.50;17.23;;;2.40;99.20;;;;;;2032345;28;20475;-72
2021/03/18 01:53:52;;;;;;;29.25;18.27;;;2.40;99.20;;;;;;2031968;29;20038;-72
2021/03/18 01:54:52;;;;;;;29.80;18.55;;;2.40;99.10;;;;;;2032501;28;20028;-73
2021/03/18 01:55:55;;;;;;;23.77;16.05;;;2.40;99.20;;;;;;2032290;28;20088;-72
2021/03/18 01:56:58;;;;;;;26.65;17.42;;;2.40;99.30;;;;;;2039695;29;20426;-72
2021/03/18 01:57:58;;;;;;;26.70;17.30;;;2.40;99.20;;;;;;2039447;29;20066;-72
2021/03/18 01:58:59;;;;;;;25.77;17.02;;;2.40;99.20;;;;;;2032845;28;20115;-73
2021/03/18 02:00:00;;;;;;;25.45;16.23;;;2.40;99.10;;;;;;2032321;28;20028;-72
2021/03/18 02:01:05;;;;;;;25.17;16.60;;;2.50;99.10;;;;;;2032094;29;20462;-72
2021/03/18 02:02:06;;;;;;;26.75;16.83;;;2.50;99.10;;;;;;2031692;29;20037;-72
2021/03/18 02:03:07;;;;;;;25.98;17.48;;;2.50;99.10;;;;;;2031834;28;20103;-72
2021/03/18 02:04:07;;;;;;;27.25;18.05;;;2.50;99.10;;;;;;2031861;29;20021;-72
2021/03/18 02:05:09;;;;;;;25.90;17.10;;;2.50;99.00;;;;;;2032331;28;20525;-73
2021/03/18 02:06:10;;;;;;;26.05;17.02;;;2.50;99.00;;;;;;2032385;29;20036;-72
2021/03/18 02:07:11;;;;;;;24.77;17.05;;;2.50;99.00;;;;;;2032369;29;20028;-72
2021/03/18 02:08:13;;;;;;;24.55;16.50;;;2.50;98.90;;;;;;2032398;29;20115;-72
2021/03/18 02:09:13;;;;;;;25.25;16.88;;;2.50;98.80;;;;;;2032389;29;20060;-72
2021/03/18 02:10:14;;;;;;;24.92;17.00;;;2.50;98.60;;;;;;2031649;28;20376;-72
2021/03/18 02:11:15;;;;;;;24.83;17.20;;;2.50;98.60;;;;;;2030984;29;20102;-72
2021/03/18 02:12:15;;;;;;;26.08;16.83;;;2.50;98.70;;;;;;2031783;28;20028;-73
2021/03/18 02:13:16;;;;;;;25.52;17.15;;;2.50;98.70;;;;;;2031320;28;20032;-73
2021/03/18 02:14:16;;;;;;;26.67;17.48;;;2.50;98.70;;;;;;2023905;29;20037;-72
2021/03/18 02:15:19;;;;;;;24.77;16.98;;;2.50;98.70;;;;;;2031823;29;20503;-73
2021/03/18 02:16:23;;;;;;;26.75;17.73;;;2.50;98.80;;;;;;2032386;29;20108;-72
2021/03/18 02:17:50;;;;;;;26.88;17.70;;;2.50;98.80;;;;;;2032329;29;20507;-73
2021/03/18 02:18:56;;;;;;;26.23;16.75;;;2.50;98.80;;;;;;2032334;29;20082;-72
2021/03/18 02:20:19;;;;;;;24.63;16.88;;;2.50;98.80;;;;;;2031647;28;20044;-72
2021/03/18 02:21:38;;;;;;;25.90;17.33;;;2.50;98.80;;;;;;2031573;29;20048;-72
2021/03/18 02:23:21;;;;;;;26.67;17.08;;;2.60;98.50;;;;;;2032463;28;20028;-72
2021/03/18 02:24:28;;;;;;;27.88;18.30;;;2.50;98.40;;;;;;2032594;29;20498;-73
2021/03/18 02:25:56;;;;;;;27.13;17.45;;;2.50;98.60;;;;;;2024203;29;20075;-72
2021/03/18 02:27:18;;;;;;;24.70;16.88;;;2.50;98.70;;;;;;2031660;29;20015;-72
2021/03/18 02:28:48;;;;;;;24.88;16.25;;;2.50;98.60;;;;;;2037291;29;20036;-72
2021/03/18 02:30:00;;;;;;;26.00;17.17;;;2.50;98.60;;;;;;2031920;28;20083;-73
2021/03/18 02:31:06;;;;;;;26.98;17.52;;;2.50;98.60;;;;;;2031645;29;20056;-72
2021/03/18 02:33:00;;;;;;;29.63;18.15;;;2.50;98.40;;;;;;2032328;29;20032;-72
2021/03/18 02:34:27;;;;;;;28.60;19.00;;;2.50;98.40;;;;;;2031999;28;20067;-73
2021/03/18 02:35:39;;;;;;;29.30;18.70;;;2.50;98.30;;;;;;2046828;29;20125;-72
2021/03/18 02:36:58;;;;;;;29.25;19.80;;;2.40;98.40;;;;;;2032261;29;20068;-72
2021/03/18 02:38:12;;;;;;;29.55;18.85;;;2.40;98.40;;;;;;2032261;29;20043;-72
2021/03/18 02:39:20;;;;;;;29.60;19.08;;;2.40;98.30;;;;;;2032326;29;20039;-72
2021/03/18 02:40:24;;;;;;;29.90;19.67;;;2.40;98.30;;;;;;2032282;29;20114;-72
2021/03/18 02:41:30;;;;;;;28.52;18.77;;;2.30;98.30;;;;;;2031919;29;20028;-72
2021/03/18 02:42:36;;;;;;;26.52;18.10;;;2.30;98.40;;;;;;2031981;29;20472;-72
2021/03/18 02:43:45;;;;;;;29.40;19.08;;;2.30;98.40;;;;;;2031896;29;20032;-72
2021/03/18 02:44:51;;;;;;;27.50;18.67;;;2.30;98.30;;;;;;2032375;29;20111;-72
2021/03/18 02:46:02;;;;;;;28.13;18.25;;;2.30;98.40;;;;;;2032145;29;20120;-72
2021/03/18 02:47:06;;;;;;;27.90;18.00;;;2.40;98.40;;;;;;2032231;29;20028;-73
2021/03/18 02:48:12;;;;;;;27.60;19.05;;;2.40;98.40;;;;;;2039394;29;20032;-72
2021/03/18 02:49:14;;;;;;;26.02;18.10;;;2.40;98.20;;;;;;2038912;29;20024;-73
2021/03/18 02:50:16;;;;;;;28.52;19.30;;;2.40;98.10;;;;;;2032058;29;20043;-72
2021/03/18 02:51:19;;;;;;;30.65;19.80;;;2.40;97.90;;;;;;2031809;29;20028;-72
2021/03/18 02:52:25;;;;;;;30.27;19.50;;;2.40;97.90;;;;;;2031896;29;20035;-72
2021/03/18 02:53:29;;;;;;;29.75;19.98;;;2.40;97.80;;;;;;2031724;29;20534;-72
2021/03/18 02:54:31;;;;;;;29.52;19.52;;;2.40;97.80;;;;;;2032173;28;20036;-73
2021/03/18 02:55:35;;;;;;;30.95;20.23;;;2.40;97.60;;;;;;2031535;28;20028;-72
2021/03/18 02:56:47;;;;;;;29.02;19.98;;;2.40;97.60;;;;;;2031472;29;20036;-72
2021/03/18 02:57:49;;;;;;;30.52;19.75;;;2.40;97.40;;;;;;2032125;29;20032;-73
2021/03/18 02:58:52;;;;;;;29.27;19.50;;;2.40;97.40;;;;;;2032155;29;20040;-73
2021/03/18 02:59:54;;;;;;;28.05;19.08;;;2.40;97.50;;;;;;2031960;29;20040;-72
2021/03/18 03:00:57;;;;;;;26.88;18.48;;;2.40;97.50;;;;;;2031614;29;20377;-72
2021/03/18 03:02:02;;;;;;;28.98;19.33;;;2.40;97.60;;;;;;2031799;29;20036;-72
2021/03/18 03:03:05;;;;;;;28.58;18.80;;;2.40;97.60;;;;;;2031935;29;20032;-73
2021/03/18 03:04:06;;;;;;;26.67;18.33;;;2.40;97.60;;;;;;2030824;29;20062;-72
2021/03/18 03:05:09;;;;;;;27.23;17.90;;;2.40;97.60;;;;;;2031405;29;20070;-72
2021/03/18 03:06:13;;;;;;;28.42;18.75;;;2.40;97.60;;;;;;2032021;29;20135;-72
2021/03/18 03:07:16;;;;;;;27.05;18.60;;;2.40;97.60;;;;;;2031390;28;20087;-72
2021/03/18 03:08:18;;;;;;;27.63;18.70;;;2.40;97.60;;;;;;2031573;28;20020;-72
2021/03/18 03:09:19;;;;;;;30.08;20.10;;;2.40;97.60;;;;;;2039044;28;20020;-72
2021/03/18 03:10:22;;;;;;;31.38;20.17;;;2.40;97.40;;;;;;2031837;29;20118;-72
2021/03/18 03:11:24;;;;;;;30.70;20.23;;;2.40;97.50;;;;;;2031031;28;20039;-72
2021/03/18 03:12:31;;;;;;;27.90;18.90;;;2.30;97.50;;;;;;2031070;29;20103;-72
2021/03/18 03:13:36;;;;;;;28.02;18.90;;;2.40;97.70;;;;;;2031534;28;20404;-72
2021/03/18 03:14:39;;;;;;;30.77;19.90;;;2.40;97.60;;;;;;2031912;29;20403;-72
2021/03/18 03:15:40;;;;;;;29.08;19.38;;;2.40;97.60;;;;;;2031852;29;20055;-73
2021/03/18 03:16:41;;;;;;;28.10;18.80;;;2.40;97.50;;;;;;2032016;28;20407;-73
2021/03/18 03:17:43;;;;;;;28.52;19.00;;;2.40;97.40;;;;;;2031878;28;20043;-72
2021/03/18 03:18:46;;;;;;;28.70;18.65;;;2.40;97.50;;;;;;2031716;29;20434;-72
2021/03/18 03:19:47;;;;;;;28.70;18.75;;;2.40;97.40;;;;;;2031840;29;20016;-72
2021/03/18 03:20:53;;;;;;;29.13;19.23;;;2.40;97.30;;;;;;2031558;29;20036;-72
2021/03/18 03:21:55;;;;;;;27.88;19.50;;;2.40;97.10;;;;;;2031881;29;20048;-72
2021/03/18 03:22:59;;;;;;;29.77;20.38;;;2.40;96.90;;;;;;2031145;29;20028;-72
2021/03/18 03:24:00;;;;;;;29.48;19.77;;;2.40;96.80;;;;;;2031048;29;20541;-72
2021/03/18 03:25:05;;;;;;;32.85;21.60;;;2.40;96.80;;;;;;2032153;29;20047;-73
2021/03/18 03:26:07;;;;;;;30.35;20.17;;;2.40;96.60;;;;;;2032261;29;20148;-72
2021/03/18 03:27:08;;;;;;;29.42;20.00;;;2.40;96.50;;;;;;2032120;29;20025;-73
2021/03/18 03:28:10;;;;;;;32.10;21.00;;;2.40;96.40;;;;;;2032059;29;20032;-73
2021/03/18 03:29:11;;;;;;;30.90;20.42;;;2.40;96.60;;;;;;2032014;29;20043;-72
2021/03/18 03:30:14;;;;;;;32.55;21.27;;;2.30;96.90;;;;;;2031214;28;20498;-72
2021/03/18 03:31:15;;;;;;;33.67;21.60;;;2.30;96.70;;;;;;2031000;29;20028;-72
2021/03/18 03:32:16;;;;;;;32.25;21.90;;;2.30;96.80;;;;;;2031654;29;20495;-72
2021/03/18 03:33:17;;;;;;;33.80;21.95;;;2.30;96.80;;;;;;2031348;29;20108;-73
2021/03/18 03:34:17;;;;;;;31.70;20.52;;;2.20;96.90;;;;;;2031770;29;20165;-72
2021/03/18 03:35:19;;;;;;;28.05;18.95;;;2.20;97.10;;;;;;2031179;28;20059;-73
2021/03/18 03:36:20;;;;;;;33.45;21.35;;;2.20;97.00;;;;;;2031130;29;20496;-72
2021/03/18 03:37:21;;;;;;;29.88;19.85;;;2.30;97.00;;;;;;2031794;28;20040;-72
2021/03/18 03:38:22;;;;;;;29.35;19.45;;;2.30;96.80;;;;;;2031762;28;20032;-72
2021/03/18 03:39:23;;;;;;;29.08;19.48;;;2.30;96.80;;;;;;2031106;28;20404;-72
2021/03/18 03:40:23;;;;;;;28.63;19.00;;;2.30;96.80;;;;;;2030991;29;20108;-73
2021/03/18 03:41:24;;;;;;;31.23;19.92;;;2.30;96.80;;;;;;2030874;28;20614;-72
2021/03/18 03:42:25;;;;;;;29.27;19.88;;;2.30;96.90;;;;;;2023259;29;20061;-72
2021/03/18 03:43:26;;;;;;;29.83;20.02;;;2.30;96.60;;;;;;2030759;29;20530;-72
2021/03/18 03:44:26;;;;;;;30.17;19.90;;;2.30;96.70;;;;;;2031703;29;20115;-72
2021/03/18 03:45:27;;;;;;;31.30;20.02;;;2.30;96.80;;;;;;2031729;29;20111;-72
2021/03/18 03:46:28;;;;;;;31.08;19.70;;;2.30;96.60;;;;;;2031832;29;20036;-72
2021/03/18 03:47:29;;;;;;;28.63;19.30;;;2.30;96.70;;;;;;2031922;28;20087;-72
2021/03/18 03:48:31;;;;;;;28.73;19.17;;;2.20;96.70;;;;;;2031860;28;20095;-73
2021/03/18 03:49:32;;;;;;;27.60;18.77;;;2.30;96.80;;;;;;2031724;29;20036;-73
2021/03/18 03:50:34;;;;;;;28.02;19.40;;;2.30;96.80;;;;;;2031334;29;20035;-72
2021/03/18 03:51:56;;;;;;;29.30;19.80;;;2.20;96.80;;;;;;2031873;29;20040;-72
2021/03/18 03:53:20;;;;;;;30.30;20.08;;;2.20;96.80;;;;;;2031833;29;20032;-72
2021/03/18 03:54:23;;;;;;;28.52;18.90;;;2.30;96.70;;;;;;2031801;29;20451;-73
2021/03/18 03:55:48;;;;;;;29.77;19.27;;;2.30;96.50;;;;;;2031883;29;20029;-72
2021/03/18 03:57:01;;;;;;;29.52;19.65;;;2.30;96.60;;;;;;2031069;28;20805;-72
2021/03/18 03:58:16;;;;;;;29.67;19.58;;;2.30;96.70;;;;;;2031323;29;20032;-72
2021/03/18 03:59:23;;;;;;;27.88;19.05;;;2.20;96.60;;;;;;2031468;28;20126;-73
2021/03/18 04:00:25;;;;;;;29.70;19.70;;;2.20;96.80;;;;;;2031333;29;20111;-72
2021/03/18 04:01:35;;;;;;;30.05;20.23;;;2.20;97.00;;;;;;2032453;29;20039;-73
2021/03/18 04:02:37;;;;;;;27.85;18.85;;;2.20;96.70;;;;;;2033367;29;20032;-72
2021/03/18 04:03:38;;;;;;;29.80;19.52;;;2.20;96.60;;;;;;2034350;29;20028;-72
2021/03/18 04:04:46;;;;;;;29.42;19.90;;;2.20;96.70;;;;;;2037504;28;20044;-72
2021/03/18 04:05:48;;;;;;;30.67;20.15;;;2.20;96.80;;;;;;2039165;28;20040;-73
2021/03/18 04:06:53;;;;;;;28.52;20.08;;;2.20;96.90;;;;;;2040632;28;20088;-72
2021/03/18 04:07:59;;;;;;;29.90;20.55;;;2.20;97.00;;;;;;2041567;29;20027;-72
2021/03/18 04:09:01;;;;;;;30.00;20.85;;;2.20;97.10;;;;;;2032779;29;20116;-72
2021/03/18 04:10:04;;;;;;;30.95;21.30;;;2.20;97.10;;;;;;2038252;29;20032;-73
2021/03/18 04:11:06;;;;;;;30.20;21.15;;;2.10;96.80;;;;;;2035263;29;20051;-72
2021/03/18 04:12:08;;;;;;;30.80;20.42;;;2.10;96.90;;;;;;2031210;29;20643;-72
2021/03/18 04:13:11;;;;;;;28.67;19.67;;;2.10;97.00;;;;;;2031536;29;20882;-73
2021/03/18 04:14:13;;;;;;;27.88;18.92;;;2.20;97.00;;;;;;2032022;29;20032;-73
2021/03/18 04:15:16;;;;;;;27.63;18.48;;;2.20;97.00;;;;;;2032131;29;20038;-72
2021/03/18 04:16:17;;;;;;;27.30;19.23;;;2.20;96.80;;;;;;2031914;29;20036;-72
2021/03/18 04:17:18;;;;;;;29.17;19.27;;;2.20;96.70;;;;;;2023457;28;20025;-72
2021/03/18 04:18:21;;;;;;;28.33;19.48;;;2.20;96.60;;;;;;2023535;29;20032;-72
2021/03/18 04:19:24;;;;;;;28.75;19.40;;;2.20;96.50;;;;;;2032078;28;20044;-72
2021/03/18 04:20:26;;;;;;;26.27;18.77;;;2.20;96.50;;;;;;2031156;28;20702;-72
2021/03/18 04:21:29;;;;;;;28.52;19.33;;;2.20;96.40;;;;;;2031128;29;20122;-72
2021/03/18 04:22:31;;;;;;;28.00;19.08;;;2.20;96.50;;;;;;2031691;29;20102;-72
2021/03/18 04:23:32;;;;;;;29.30;19.77;;;2.20;96.40;;;;;;2031299;29;20020;-72
2021/03/18 04:24:35;;;;;;;28.65;19.73;;;2.20;96.40;;;;;;2031825;29;20040;-72
2021/03/18 04:25:38;;;;;;;28.60;19.23;;;2.20;96.50;;;;;;2031971;29;20016;-72
2021/03/18 04:26:40;;;;;;;28.42;19.05;;;2.20;96.50;;;;;;2031609;29;20042;-72
2021/03/18 04:27:41;;;;;;;28.73;19.85;;;2.30;96.50;;;;;;2031265;28;20067;-72
2021/03/18 04:28:42;;;;;;;27.27;18.92;;;2.30;96.50;;;;;;2031285;29;20078;-73
2021/03/18 04:29:44;;;;;;;27.88;19.70;;;2.30;96.30;;;;;;2031877;29;20036;-72
2021/03/18 04:30:45;;;;;;;27.98;18.77;;;2.30;96.20;;;;;;2031314;29;20032;-72
2021/03/18 04:31:46;;;;;;;29.48;19.67;;;2.30;96.30;;;;;;2031543;29;20044;-72
2021/03/18 04:32:48;;;;;;;27.90;18.75;;;2.30;96.40;;;;;;2030633;29;20169;-72
2021/03/18 04:33:49;;;;;;;29.15;19.23;;;2.30;96.40;;;;;;2030407;29;20063;-73
2021/03/18 04:34:52;;;;;;;27.35;19.00;;;2.30;96.50;;;;;;2030741;29;20039;-72
2021/03/18 04:35:54;;;;;;;26.67;18.90;;;2.30;96.50;;;;;;2030858;28;20036;-72
2021/03/18 04:36:56;;;;;;;27.52;18.73;;;2.30;96.40;;;;;;2030977;29;20564;-71
2021/03/18 04:38:03;;;;;;;28.70;19.35;;;2.30;96.30;;;;;;2031697;28;20488;-72
2021/03/18 04:39:05;;;;;;;28.50;19.40;;;2.30;96.20;;;;;;2031545;29;20098;-72
2021/03/18 04:40:09;;;;;;;29.98;19.88;;;2.30;96.10;;;;;;2031484;29;20651;-71
2021/03/18 04:41:10;;;;;;;27.42;19.08;;;2.30;96.00;;;;;;2031152;29;20484;-71
2021/03/18 04:42:11;;;;;;;30.10;19.92;;;2.30;96.10;;;;;;2031307;28;20040;-72
2021/03/18 04:43:12;;;;;;;28.60;19.77;;;2.30;96.10;;;;;;2030949;28;20396;-72
2021/03/18 04:44:14;;;;;;;30.02;20.42;;;2.30;96.00;;;;;;2031344;29;20032;-73
2021/03/18 04:45:21;;;;;;;29.73;20.35;;;2.30;95.90;;;;;;2031550;29;20124;-72
2021/03/18 04:46:24;;;;;;;30.48;20.20;;;2.20;95.90;;;;;;2038756;29;20039;-72
2021/03/18 04:47:25;;;;;;;29.67;19.77;;;2.20;95.80;;;;;;2038605;29;20103;-72
2021/03/18 04:48:27;;;;;;;28.45;19.75;;;2.20;95.80;;;;;;2031344;29;20712;-73
2021/03/18 04:49:29;;;;;;;29.73;19.90;;;2.20;95.70;;;;;;2031319;29;20168;-73
2021/03/18 04:50:31;;;;;;;28.08;19.70;;;2.20;95.70;;;;;;2031016;29;20542;-73
2021/03/18 04:51:32;;;;;;;30.73;20.35;;;2.20;95.70;;;;;;2031441;29;20032;-73
2021/03/18 04:52:32;;;;;;;29.75;19.75;;;2.20;95.70;;;;;;2031275;28;20030;-73
2021/03/18 04:53:34;;;;;;;30.27;20.17;;;2.10;95.80;;;;;;2031090;28;20040;-71
2021/03/18 04:54:35;;;;;;;32.15;21.08;;;2.10;96.00;;;;;;2031308;29;20067;-72
2021/03/18 04:55:35;;;;;;;31.73;20.83;;;2.10;95.90;;;;;;2031572;28;20067;-72
2021/03/18 04:56:40;;;;;;;31.45;20.48;;;2.10;95.80;;;;;;2031308;28;20032;-71
2021/03/18 04:57:47;;;;;;;30.60;20.33;;;2.10;96.00;;;;;;2031578;29;20081;-71
2021/03/18 04:58:48;;;;;;;31.55;20.88;;;2.10;96.00;;;;;;2031370;29;20024;-71
2021/03/18 04:59:51;;;;;;;30.23;20.42;;;2.10;96.00;;;;;;2031500;28;20107;-71
2021/03/18 05:00:51;;;;;;;31.20;20.13;;;2.00;96.00;;;;;;2030877;29;20035;-71
2021/03/18 05:01:54;;;;;;;31.15;20.45;;;2.00;96.20;;;;;;2031360;28;20035;-71
2021/03/18 05:03:01;;;;;;;30.83;20.50;;;2.10;96.30;;;;;;2031114;29;20028;-71
2021/03/18 05:04:04;;;;;;;30.58;20.50;;;2.00;96.30;;;;;;2030969;29;20059;-71
2021/03/18 05:05:08;;;;;;;29.50;19.88;;;2.10;96.40;;;;;;2031303;29;20028;-71
2021/03/18 05:06:09;;;;;;;30.48;20.10;;;2.10;96.50;;;;;;2031210;29;20036;-71
2021/03/18 05:07:13;;;;;;;32.30;20.83;;;2.10;96.50;;;;;;2031253;29;20036;-71
2021/03/18 05:08:17;;;;;;;31.80;21.00;;;2.10;96.50;;;;;;2031298;29;20115;-71
2021/03/18 05:09:19;;;;;;;34.53;22.98;;;2.10;96.40;;;;;;2031282;29;20035;-71
2021/03/18 05:10:23;;;;;;;32.67;22.13;;;2.10;96.20;;;;;;2038349;29;20438;-71
2021/03/18 05:11:24;;;;;;;33.55;22.02;;;2.10;96.30;;;;;;2030348;28;20411;-71
2021/03/18 05:12:25;;;;;;;34.42;21.83;;;2.10;96.40;;;;;;2030412;29;20036;-71
2021/03/18 05:13:28;;;;;;;33.67;22.60;;;2.10;96.40;;;;;;2030089;29;20032;-71
2021/03/18 05:14:30;;;;;;;33.70;22.75;;;2.20;96.40;;;;;;2031191;28;20764;-71
2021/03/18 05:15:32;;;;;;;37.50;22.65;;;2.20;96.20;;;;;;2031206;29;20032;-72
2021/03/18 05:16:34;;;;;;;39.58;23.75;;;2.20;96.20;;;;;;2030504;29;20024;-71
2021/03/18 05:17:37;;;;;;;38.65;25.38;;;2.10;96.10;;;;;;2030525;29;20028;-71
2021/03/18 05:18:38;;;;;;;37.65;23.98;;;2.20;96.10;;;;;;2031231;29;20123;-71
2021/03/18 05:19:39;;;;;;;37.20;24.63;;;2.20;96.00;;;;;;2031245;29;20032;-72
2021/03/18 05:20:41;;;;;;;36.47;23.38;;;2.20;95.90;;;;;;2030338;28;20044;-72
2021/03/18 05:21:46;;;;;;;37.72;23.00;;;2.20;95.80;;;;;;2030605;29;20060;-72
2021/03/18 05:22:47;;;;;;;37.92;23.88;;;2.20;95.90;;;;;;2031023;29;20086;-72
2021/03/18 05:23:48;;;;;;;36.17;22.95;;;2.20;95.90;;;;;;2030720;29;20484;-72
2021/03/18 05:24:48;;;;;;;36.80;23.45;;;2.20;95.90;;;;;;2031091;28;20035;-72
2021/03/18 05:25:49;;;;;;;39.80;24.08;;;2.20;95.70;;;;;;2030777;28;20020;-72